Andreas, Pennsylvania
Current Conditions -  °F | °C
As of 7:15 PM on Sunday 23 Nov 2014 (Local Time) from KHZL Reporting Station
Clear Clear  
Wind Chill:   Ceiling: Unl
Heat Index:   Visibility: 10mi
Dew Point: -3°   Wind: 5mph
Humidity: 46%   Direction: 120°ESE
Pressure: 30.05"   Gusts: NA
Location:  40.75°N, 75.79°W
Report Text: KHZL 240015Z AUTO 12004KT 10SM CLR 08/M03 A3005 RMK AO2
Loading
Personal Weather Stations






























Interactive Weather Map New forecast layout! Learn more

10-Day Weather Forecast

Advertisements
Track Severe Weather on mobile